Airville, Pennsylvania
Current Conditions -  °F | °C
As of 11:38 PM on Sunday 25 Jan 2015 (Local Time) from KLNS Reporting Station
Light Snow Light Snow  
Wind Chill: -6°   Ceiling: 1800
Heat Index: -1°   Visibility: 2.5mi
Dew Point: -2°   Wind: 14mph
Humidity: 89%   Direction: 70°ENE
Pressure: 29.9"   Gusts: NA
Location:  39.83°N, 76.41°W
Report Text: KLNS 260438Z AUTO 07012KT 2 1/2SM -SN BR SCT011 OVC018 M01/M02 A2990 RMK AO2 P0000 T10061022
Loading
Personal Weather Stations






























Interactive Weather Map New forecast layout! Learn more

10-Day Weather Forecast

Advertisements
Track Severe Weather on mobile